x

Santa Monica Basin - 33nm Wsw Of Santa Monica, Ca (46025) Wave Buoy

10:40 - Mon 27th Mar 2017 All times are PDT. -7 hours from GMT.

  • Sig Wave height 6.6ft
  • Swell Direction
  • Average Period 6s
  • Wind
    20mph, 25mph gusts
  • Sea Temp 59°f
  • Air Temp 59°f
  • Sea Pressure 1015.5mb
  • Santa Monica Basin - 33nm Wsw Of Santa Monica, Ca
  • Santa Monica Basin - 33nm Wsw Of Santa Monica, Ca

More Historic Weather Station data

Upgrade to MSW Pro to gain access to the past 30 days of data for over 8000 Wavebouys and Weather Stations around the globe.

Join Pro

Comparision Forecast

View Surf forecast
   
lun. 03/27 10:40 6.5ft  -  6s 20 25 mph 1015.5mb 59f 59f
10:30  -   -   -  20 25 mph 1015.6mb 59f 59f
10:20  -   -   -  20 27 mph 1015.6mb 59f 59f
10:10  -   -   -  22 27 mph 1015.6mb 59f 59f
10:00  -   -   -  20 25 mph 1015.6mb 59f 60f
9:50 7.5ft 6s 6s 20 27 mph 1015.6mb 59f 60f
9:40 7.5ft  -  6s 22 27 mph 1015.5mb 59f 60f
9:30  -   -   -  22 27 mph 1015.1mb 60f 60f
9:20  -   -   -  22 29 mph 1015.1mb 60f 60f
9:10  -   -   -  22 27 mph 1014.9mb 60f 60f
9:00  -   -   -  18 22 mph 1014.9mb 60f 60f
8:50 7ft 8s 6s 20 27 mph 1014.9mb 60f 60f
8:40 7ft  -  6s 22 29 mph 1014.5mb 60f 61f
8:30  -   -   -  25 31 mph 1014.1mb 60f 61f
8:20  -   -   -  25 31 mph 1014mb 60f 61f
8:10  -   -   -  25 31 mph 1013.9mb 60f 60f
8:00  -   -   -  25 31 mph 1013.8mb 60f 60f
7:50 7.5ft 7s 6s 25 31 mph 1013.9mb 60f 60f
7:40  -   -   -  25 34 mph 1014mb 60f 61f
7:30  -   -   -  27 31 mph 1013.8mb 60f 61f
7:20  -   -   -  27 34 mph 1013.6mb 60f 61f
7:10  -   -   -  27 34 mph 1013.6mb 60f 61f
7:00  -   -   -  25 31 mph 1013.8mb 60f 60f
6:50 8ft 8s 6s 25 31 mph 1014mb 60f 61f
6:40 8ft  -  6s 25 29 mph 1014mb 60f 61f
6:30  -   -   -  22 29 mph 1014mb 60f 61f
6:20  -   -   -  22 29 mph 1014mb 60f 61f
6:10  -   -   -  22 27 mph 1013.9mb 60f 60f
6:00  -   -   -  20 25 mph 1014.1mb 60f 61f
5:50 7.5ft 7s 6s 20 27 mph 1014.3mb 60f 60f
5:40  -   -   -  20 27 mph 1014.5mb 60f 61f
5:30  -   -   -  22 29 mph 1014.6mb 60f 61f
5:20  -   -   -  25 31 mph 1014.5mb 60f 61f
5:10  -   -   -  20 31 mph 1014.6mb 60f 60f
5:00  -   -   -  18 22 mph 1014.8mb 60f 60f
4:50 7ft 7s 6s 18 22 mph 1014.6mb 60f 60f
4:40 7ft  -  6s 18 22 mph 1015mb 60f 60f
4:30  -   -   -  18 25 mph 1015.4mb 60f 60f
4:20  -   -   -  22 27 mph 1015.3mb 60f 60f
4:10  -   -   -  20 25 mph 1015.4mb 60f 60f
4:00  -   -   -  22 27 mph 1015.1mb 60f 60f
3:50 6.5ft 7s 6s 20 27 mph 1015.1mb 60f 60f
3:40  -   -   -  20 27 mph 1015mb 60f 60f
3:30  -   -   -  20 25 mph 1015.3mb 60f 60f
3:20  -   -   -  22 27 mph 1015.4mb 60f 60f
3:10  -   -   -  20 25 mph 1015.6mb 60f 60f
3:00  -   -   -  18 22 mph 1015.6mb - -
2:50 6ft 6s 6s 16 20 mph 1016mb 60f 60f
2:40 6ft  -  6s 16 20 mph 1016.3mb 60f 60f
2:30  -   -   -  13 18 mph 1016.1mb 60f 60f
2:20  -   -   -  13 18 mph 1016.5mb 60f 60f
2:10  -   -   -  11 16 mph 1016.4mb - 60f
2:00  -   -   -  9 16 mph 1016.3mb 60f 60f
1:50 5.5ft 6s 6s 7 11 mph 1016.8mb 60f 61f
1:40 5.5ft  -  6s 4 9 mph 1016.8mb 60f 60f
1:30  -   -   -  4 7 mph 1016.5mb 60f 60f
1:20  -   -   -  4 9 mph 1016.8mb 60f 60f
1:10  -   -   -  7 9 mph 1016.8mb 60f 60f
1:00  -   -   -  7 9 mph 1016.9mb 60f 60f
12:50 5.5ft 6s 6s 7 9 mph 1017mb 60f 60f
12:40 5.5ft  -  6s 2 9 mph 1017.3mb 60f 60f
12:30  -   -   -  2 4 mph 1017.3mb 60f 60f
12:20  -   -   -  7 11 mph 1017.5mb 60f 60f
12:10  -   -   -  11 18 mph 1017.4mb 60f 60f
12:00  -   -   -  16 20 mph 1017.1mb 60f 60f
11:50 5.5ft 6s 5s 16 20 mph 1017mb 60f 59f
11:40 5.5ft  -  5s 16 18 mph 1017mb - 59f
11:30  -   -   -  16 20 mph 1017mb 60f 59f
11:20  -   -   -  16 20 mph 1017mb 59f 59f
11:10  -   -   -  16 20 mph 1017.1mb 60f 59f
11:00  -   -   -  18 22 mph 1017.3mb 60f 59f
10:50 6ft 5s 5s 18 22 mph 1017.4mb 60f 59f
10:40 6ft  -  5s 18 22 mph 1017.5mb 60f 59f
10:30  -   -   -  20 22 mph 1017.4mb 60f 58f
10:20  -   -   -  18 22 mph 1017.3mb 59f 58f
10:10  -   -   -  18 22 mph 1017.3mb 60f 58f
10:00  -   -   -  20 22 mph 1017.4mb 59f 58f
9:50 6ft 6s 5s 22 27 mph 1017.3mb 59f 58f
9:40  -   -   -  20 25 mph 1017.1mb 59f 58f
9:30  -   -   -  20 27 mph 1017.3mb 59f 58f
9:20  -   -   -  22 27 mph 1017.1mb 59f 58f
9:10  -   -   -  22 31 mph 1017mb 59f 58f
9:00  -   -   -  20 25 mph 1017mb 59f 59f
8:50 6ft 6s 6s 20 25 mph 1016.8mb 59f 59f
8:40  -   -   -  18 25 mph 1017mb 59f 59f
8:30  -   -   -  11 16 mph 1017.3mb 59f 58f
8:20  -   -   -  11 16 mph 1017.1mb 59f 58f
8:10  -   -   -  16 18 mph 1017mb 59f 58f
8:00  -   -   -  13 16 mph 1016.9mb 59f 59f
7:50 6ft 6s 6s 11 16 mph 1016.5mb 59f 59f
7:40 6ft  -  6s 13 18 mph 1016.5mb 59f 59f
7:30  -   -   -  16 20 mph 1016.4mb 59f 59f
7:20  -   -   -  16 20 mph 1016.4mb 59f 59f
7:10  -   -   -  11 16 mph 1016.3mb 59f 59f
7:00  -   -   -  13 18 mph 1016.1mb 59f 59f
6:50 6ft 7s 6s 16 18 mph 1015.6mb - 58f
6:40  -   -   -  18 20 mph 1016.1mb 59f 58f
6:30  -   -   -  16 20 mph 1015.5mb 59f 58f
6:20  -   -   -  16 20 mph 1015.5mb 59f 58f
6:10  -   -   -  16 20 mph 1015.6mb 59f 58f
6:00  -   -   -  16 20 mph 1015.5mb 59f 58f
5:50 6ft 7s 6s 16 20 mph 1015.5mb 59f 58f
5:40 6ft  -  6s 13 18 mph 1015.6mb 59f 58f
5:30  -   -   -  9 16 mph 1015.8mb 60f 59f
5:20  -   -   -  9 13 mph 1015.9mb 60f 59f
5:10  -   -   -  7 11 mph 1016mb 60f 58f
5:00  -   -   -  9 16 mph 1016mb 60f 59f
4:50 5.5ft 7s 6s 16 18 mph 1016mb 60f 59f
4:40 5.5ft  -  6s 16 20 mph 1015.9mb 60f 59f
4:30  -   -   -  18 20 mph 1015.8mb 60f 59f
4:20  -   -   -  16 25 mph 1015.9mb 60f 59f
4:10  -   -   -  20 25 mph 1015.8mb 60f 59f
4:00  -   -   -  22 27 mph 1015.8mb 60f 59f
3:50 6ft 7s 6s 18 27 mph 1015.8mb 60f 59f
3:40  -   -   -  16 20 mph 1015.9mb 60f 58f
3:30  -   -   -  16 20 mph 1016.1mb 60f 58f
3:20  -   -   -  20 25 mph 1016.3mb 60f 58f
3:10  -   -   -  22 27 mph 1016.1mb 60f 58f
3:00  -   -   -  20 27 mph 1016.3mb 60f 58f
2:50 5.5ft 7s 5s 20 27 mph 1016.4mb 60f 58f
2:40  -   -   -  25 27 mph 1016.3mb 60f 58f
2:30  -   -   -  25 29 mph 1016mb 60f 58f
2:20  -   -   -  25 31 mph 1016.1mb 60f 58f
2:10  -   -   -  25 29 mph 1016.4mb 60f 58f
2:00  -   -   -  22 29 mph 1016.5mb 60f 58f
1:50 5.5ft 7s 5s 22 27 mph 1016.5mb 60f 59f
1:40 5.5ft  -  5s 22 27 mph 1016.5mb 60f 59f
1:30  -   -   -  25 29 mph 1016.4mb 60f 59f
1:20  -   -   -  20 27 mph 1016.4mb 60f 59f
1:10  -   -   -  22 27 mph 1016.3mb 60f 59f
1:00  -   -   -  20 25 mph 1016.4mb 60f 59f
12:50 6ft 12s 6s 18 22 mph 1016.5mb 60f 59f
12:40 6ft  -  6s 18 25 mph 1016.6mb 60f 59f
12:30  -   -   -  22 29 mph 1016.4mb 60f 59f
12:20  -   -   -  22 27 mph 1016.3mb 60f 59f
12:10  -   -   -  22 27 mph 1016.5mb 60f 59f
12:00  -   -   -  20 25 mph 1016.5mb 60f 59f
dim. 03/26 11:50 5ft 14s 6s 20 22 mph 1016.5mb 60f 59f
11:40  -   -   -  18 22 mph 1016.5mb 60f 59f
11:30  -   -   -  16 22 mph 1016.6mb 60f 59f
11:20  -   -   -  18 22 mph 1016.8mb 60f 59f
11:10  -   -   -  16 22 mph 1016.8mb 60f 59f
11:00  -   -   -  16 20 mph 1016.9mb 60f 59f
10:50 4.5ft 13s 6s 16 18 mph 1017mb 60f 60f
10:40  -   -   -  16 20 mph 1017mb 60f 60f
10:30  -   -   -  13 18 mph 1017mb 60f 59f
10:20  -   -   -  13 18 mph 1017mb 60f 59f
10:10  -   -   -  13 16 mph 1017mb 60f 59f
10:00  -   -   -  13 16 mph 1016.9mb 60f 58f
9:50 4.5ft 12s 6s 13 18 mph 1017mb 60f 59f
9:40 4.5ft  -  6s 13 16 mph 1016.9mb 60f 59f
9:30  -   -   -  13 18 mph 1016.8mb 60f 59f
9:20  -   -   -  11 16 mph 1016.8mb 60f 59f
9:10  -   -   -  11 16 mph 1016.9mb 60f 59f
9:00  -   -   -  11 13 mph 1016.6mb 60f 59f
8:50 4.5ft 14s 6s 11 13 mph 1016.5mb 60f 59f
8:40 4.5ft  -  6s 13 16 mph 1016.5mb 60f 59f
8:30  -   -   -  11 13 mph 1016.5mb 60f 59f
8:20  -   -   -  9 11 mph 1016.5mb 60f 59f
8:10  -   -   -  7 9 mph 1016.4mb 60f 59f
8:00  -   -   -  7 9 mph 1016.4mb 60f 60f
7:50 4.5ft 14s 6s 7
mph
1016.4mb 61f 59f
7:40 4.5ft  -  6s 7 9 mph 1016.3mb 61f 59f
7:30  -   -   -  7 9 mph 1016.4mb 61f 59f
7:20  -   -   -  7 9 mph 1016.5mb 61f 59f
7:10  -   -   -  7 9 mph 1016.4mb 61f 59f
7:00  -   -   -  7
mph
1016.5mb 61f 59f
6:50 4ft 14s 6s 4 7 mph 1016.5mb 61f 59f
6:40  -   -   -  7
mph
1016.5mb 61f 59f
6:30  -   -   -  4 7 mph 1016.5mb 61f 60f
6:20  -   -   -  7 9 mph 1017.2mb 61f 60f
6:10  -   -   -  7
mph
1016.6mb 61f 60f
6:00  -   -   -  7 9 mph 1016.8mb 61f 60f
5:50 4ft 14s 6s 7 9 mph 1016.8mb 61f 60f
5:40  -   -   -  4 7 mph 1016.8mb 61f 60f
5:30  -   -   -  4 7 mph 1017mb 61f 59f
5:20  -   -   -  7 9 mph 1017mb 61f 59f
5:10  -   -   -  7 9 mph 1017mb 61f 59f
5:00  -   -   -  7 9 mph 1017.1mb 61f 59f
4:50 4ft 15s 6s 7 11 mph 1017.3mb 61f 59f
4:40 4ft  -  6s 9 11 mph 1017.4mb 60f 59f
4:30  -   -   -  9 11 mph 1017.4mb 60f 59f
4:20  -   -   -  7 9 mph 1017.5mb 60f 59f
4:10  -   -   -  7 9 mph 1017.5mb 60f 59f
4:00  -   -   -  7 9 mph 1017.6mb 60f 59f
3:50 4.5ft 14s 7s 4 7 mph 1017.6mb 61f 59f
3:40 4.5ft  -  7s 4 7 mph 1017.5mb 61f 59f
3:30  -   -   -  4 7 mph 1017.6mb 62f 59f
3:20  -   -   -  7 9 mph 1017.9mb 60f 59f
3:10  -   -   -  7 9 mph 1017.9mb 60f 59f
3:00  -   -   -  7 9 mph 1018mb 60f 59f
2:50 4.5ft 14s 7s 7 9 mph 1018mb 60f 59f
2:40 4.5ft  -  7s 7 9 mph 1018.3mb 60f 59f
2:30  -   -   -  4 7 mph 1018.4mb 60f 59f
2:20  -   -   -  4 9 mph 1018.4mb 60f 59f
2:10  -   -   -  4 7 mph 1018.4mb 60f 59f
2:00  -   -   -  4 7 mph 1018.4mb 60f 59f
1:50 4.5ft 14s 8s 4 7 mph 1018.5mb 60f 60f
1:40 4.5ft  -  8s 4 7 mph 1018.8mb 60f 60f
1:30  -   -   -  4 7 mph 1018.8mb 60f 60f
1:20  -   -   -  4
mph
1018.6mb 60f 60f
1:10  -   -   -  2 4 mph 1018.6mb 60f 60f
1:00  -   -   -  4 7 mph 1018.6mb 60f 59f
12:50 4ft 15s 7s 4 7 mph 1018.8mb 60f 59f
12:40 4ft  -  7s 4 7 mph 1018.6mb 60f 59f
12:30  -   -   -  2 4 mph 1018.5mb 60f 60f
12:20  -   -   -  2 4 mph 1018.6mb 60f 59f
12:10  -   -   -  2 4 mph 1018.6mb 60f 59f
12:00  -   -   -  4 7 mph 1018.6mb 60f 59f
11:50 4ft 14s 7s 2 4 mph 1018.9mb 60f 59f
11:40 4ft  -  7s  -  2 mph 1018.8mb 60f 60f
11:30  -   -   -   -  2 mph 1018.5mb 60f 60f
11:20  -   -   -   -  2 mph 1018.5mb 60f 59f
11:10  -   -   -   -  4 mph 1018.6mb 60f 59f
11:00  -   -   -  2 4 mph 1018.4mb 59f 59f
10:50 4.5ft 15s 7s 2 4 mph 1018.4mb 60f 58f
10:40 4.5ft  -  7s 2 4 mph 1018.4mb 60f 58f
10:30  -   -   -  2 4 mph 1018.3mb 60f 58f
10:20  -   -   -  2 4 mph 1018.3mb 59f 58f
10:10  -   -   -  2 4 mph 1018.1mb 59f 58f
10:00  -   -   -  2 4 mph 1018.1mb 59f 58f
9:50 4.5ft 8s 6s 4
mph
1017.9mb - 58f
9:40 4.5ft  -  6s 2 4 mph 1017.8mb 59f 58f
9:30  -   -   -  2 4 mph 1017.5mb 59f 58f
9:20  -   -   -  2 4 mph 1017.5mb 59f 58f
9:10  -   -   -  2 4 mph 1017.8mb 59f 58f
9:00  -   -   -  2
mph
1017.5mb 59f 58f
8:50 5ft 14s 6s  -  2 mph 1017.3mb 59f 58f
8:40  -   -   -  2
mph
1017.1mb 59f 58f
8:30  -   -   -  2 4 mph 1017mb 59f 58f
8:20  -   -   -  2 4 mph 1016.9mb 59f 58f
8:10  -   -   -  2 4 mph 1016.8mb 59f 58f
8:00  -   -   -  2 4 mph 1016.6mb 59f 58f
7:50 5ft 7s 6s 4
mph
1016.5mb 59f 58f
7:40 5ft  -  6s 4 7 mph 1016.6mb 59f 58f
7:30  -   -   -  4
mph
1016.5mb 59f 58f
7:20  -   -   -  4
mph
1016.8mb 59f 58f
7:10  -   -   -  2 4 mph 1016.5mb 59f 58f
7:00  -   -   -  4 7 mph 1016.5mb 59f 58f
6:50 5ft 8s 7s 4 7 mph 1016.5mb - 58f
6:40 5ft  -  7s 2 4 mph 1016.4mb 59f 58f
6:30  -   -   -  4 7 mph 1016.1mb 59f 57f
6:20  -   -   -  4 7 mph 1016.1mb 59f 58f
6:10  -   -   -  4 7 mph 1016.1mb 59f 58f
6:00  -   -   -  4 7 mph 1016mb - -
5:50 5ft 7s 6s 4 7 mph 1016mb 59f 57f
5:40 5ft  -  6s 4 7 mph 1016mb 59f 57f
5:30  -   -   -  4 7 mph 1016mb 59f 58f
5:20  -   -   -  4 7 mph 1015.9mb 59f 58f
5:10  -   -   -  2 4 mph 1015.9mb 59f 58f
5:00  -   -   -  2 7 mph 1015.9mb 59f 58f
4:50 5ft 8s 7s 2 4 mph 1015.9mb 59f 58f
4:40 5ft  -  7s 2 4 mph 1015.9mb 59f 58f
4:30  -   -   -  2 4 mph 1016mb 59f 58f
4:20  -   -   -  2
mph
1016mb 59f 58f
4:10  -   -   -   -  2 mph 1016mb 59f 58f
4:00  -   -   -   -  2 mph 1016mb 59f 58f
3:50 5ft 9s 7s  -  2 mph 1016mb 59f 58f
3:40 5ft  -  7s  -  2 mph 1016mb 59f 58f
3:30  -   -   -  2 4 mph 1016.1mb 59f 58f
3:20  -   -   -  2 4 mph 1016.1mb 59f 58f
3:10  -   -   -  2
mph
1016.3mb 59f 58f
3:00  -   -   -  2 4 mph 1016.4mb 59f 58f
2:50 5ft 7s 7s 2 4 mph 1016.3mb 59f 58f
2:40 5ft  -  7s 2 4 mph 1016.3mb 59f 58f
2:30  -   -   -  4 7 mph 1016.3mb 59f 58f
2:20  -   -   -  4 7 mph 1016.4mb 59f 58f
2:10  -   -   -  7
mph
1016.4mb 59f 58f
2:00  -   -   -  4 7 mph 1016.5mb 59f 58f
1:50 5ft 7s 7s 4
mph
1016.5mb 59f 58f
1:40 5ft  -  7s 4 7 mph 1016.5mb 59f 58f
1:30  -   -   -  4 7 mph 1016.5mb 59f 58f
1:20  -   -   -  2 4 mph 1016.5mb 59f 58f
1:10  -   -   -  2 4 mph 1016.5mb 59f 58f
1:00  -   -   -  4 7 mph 1016.6mb 59f 58f
12:50 4.5ft 8s 7s 4 7 mph 1016.5mb 59f 58f
12:40 4.5ft  -  7s 4 7 mph 1016.6mb 59f 59f
12:30  -   -   -  4 7 mph 1016.6mb 59f 59f
12:20  -   -   -  4 7 mph 1016.5mb 59f 59f
12:10  -   -   -  4 7 mph 1016.6mb 59f 59f
12:00  -   -   -  4 9 mph 1016.5mb 59f 59f
sam. 03/25 11:50 4.5ft 7s 7s 4 9 mph 1016.6mb 59f 59f
11:40 4.5ft  -  7s 4 7 mph 1016.8mb 59f 58f
11:30  -   -   -  4 7 mph 1016.8mb 59f 58f
11:20  -   -   -  4
mph
1016.6mb 59f 58f
11:10  -   -   -  4 7 mph 1016.8mb 59f 58f
11:00  -   -   -  4
mph
1016.6mb 59f 58f
10:50 5ft 7s 6s 4 7 mph 1016.8mb - 58f
10:40 5ft  -  6s 4 7 mph 1017mb 59f 58f
10:30  -   -   -  4 7 mph 1017mb 59f 58f
10:20  -   -   -  2 4 mph 1017.1mb 59f 58f
10:10  -   -   -  2 4 mph 1017mb 59f 59f
10:00  -   -   -  2 4 mph 1017mb 59f 59f
9:50 5ft 7s 6s 2 4 mph 1017mb 59f 59f
9:40  -   -   -  2 4 mph 1017mb 59f 59f
9:30  -   -   -   -  2 mph 1017mb 59f 59f
9:20  -   -   -  2 4 mph 1017mb 59f 59f
9:10  -   -   -  4 7 mph 1016.9mb 59f 59f
9:00  -   -   -  4 7 mph 1016.9mb 59f 59f
8:50 4.5ft 6s 6s 4 7 mph 1016.9mb 59f 59f
8:40 4.5ft  -  6s 7 9 mph 1016.8mb 59f 59f
8:30  -   -   -  7 9 mph 1016.9mb 59f 59f
8:20  -   -   -  7 9 mph 1016.9mb 59f 59f
8:10  -   -   -  9 11 mph 1016.8mb 59f 59f
8:00  -   -   -  9 11 mph 1016.5mb 59f 58f
7:50 4.5ft 6s 5s 9 11 mph 1016.6mb 59f 58f
7:40  -   -   -  11 13 mph 1016.6mb 59f 58f
7:30  -   -   -  11 13 mph 1016.5mb 59f 58f
7:20  -   -   -  11 13 mph 1016.6mb 59f 58f
7:10  -   -   -  9 13 mph 1016.6mb 60f 59f
7:00  -   -   -  9 11 mph 1016.6mb 60f 59f
6:50 5ft 10s 6s 7 9 mph 1016.5mb 60f 59f
6:40  -   -   -  7 9 mph 1016.6mb 60f 59f
6:30  -   -   -  9 11 mph 1016.8mb 60f 59f
6:20  -   -   -  11 13 mph 1016.8mb 60f 59f
6:10  -   -   -  11 13 mph 1016.8mb 60f 59f
6:00  -   -   -  9 11 mph 1017mb 60f 60f
5:50 4.5ft 10s 6s 7 9 mph 1016.9mb 60f 59f
5:40  -   -   -  7
mph
1016.9mb 60f 59f
5:30  -   -   -  7 9 mph 1017mb 60f 59f
5:20  -   -   -  7 9 mph 1017mb 60f 59f
5:10  -   -   -  7 9 mph 1017mb 60f 59f
5:00  -   -   -  7 9 mph 1017mb 60f 59f
4:50 3.5ft 14s 6s 7 9 mph 1017.1mb 60f 59f
4:40 3.5ft  -  6s 7 11 mph 1017.3mb 60f 59f
4:30  -   -   -  4 7 mph 1017.4mb 60f 59f
4:20  -   -   -  7 9 mph 1017.5mb 60f 59f
4:10  -   -   -  7 9 mph 1017.5mb 60f 59f
4:00  -   -   -  7 9 mph 1017.4mb 60f 59f
3:50 3.5ft 14s 7s 4 7 mph 1017.5mb 60f 58f
3:40 3.5ft  -  7s 7 11 mph 1017.6mb 60f 58f
3:30  -   -   -  9 11 mph 1017.6mb 60f 59f
3:20  -   -   -  9 11 mph 1017.8mb 60f 58f
3:10  -   -   -  11 13 mph 1017.9mb 60f 59f
3:00  -   -   -  9 11 mph 1017.9mb 60f 59f
2:50 3.5ft 9s 7s 11 13 mph 1018mb 60f 59f
2:40 3.5ft  -  7s 9 11 mph 1018mb 60f 59f
2:30  -   -   -  11 13 mph 1018.1mb 60f 59f
2:20  -   -   -  11 13 mph 1018.3mb 60f 58f
2:10  -   -   -  11 13 mph 1018.4mb 60f 58f
2:00  -   -   -  11 13 mph 1018.5mb 60f 58f
1:50 4ft 10s 7s 11 13 mph 1018.6mb 60f 58f
1:40 4ft  -  7s 11 13 mph 1018.8mb 60f 59f
1:30  -   -   -  9 11 mph 1018.9mb - 59f
1:20  -   -   -  9 13 mph 1018.9mb 60f 59f
1:10  -   -   -  9 11 mph 1019mb 60f 59f
1:00  -   -   -  7 9 mph 1019.1mb 59f 59f
12:50 4.5ft 10s 8s 7 9 mph 1019.3mb 59f 59f
12:40 4.5ft  -  8s 7 9 mph 1019.4mb 59f 59f
12:30  -   -   -  7 9 mph 1019.5mb 59f 59f
12:20  -   -   -  7
mph
1019.5mb 59f 59f
12:10  -   -   -  7
mph
1019.5mb 59f 59f
12:00  -   -   -  4 7 mph 1019.5mb - 59f
11:50 4.5ft 10s 8s 4 7 mph 1019.5mb 59f 59f
11:40 4.5ft  -  8s 4 7 mph 1019.6mb 59f 59f
11:30  -   -   -  7 9 mph 1019.6mb 59f 59f
11:20  -   -   -  4 9 mph 1019.5mb 59f 59f
11:10  -   -   -  4 7 mph 1019.6mb 59f 59f
11:00  -   -   -  2 4 mph 1019.6mb 59f 59f
10:50 4.5ft 11s 7s 2 4 mph 1019.8mb 59f 59f
10:40 4.5ft  -  7s 2 4 mph 1019.8mb - 59f
10:30  -   -   -  2 4 mph 1019.8mb 59f 58f
10:20  -   -   -  2 4 mph 1019.8mb 59f 58f
10:10  -   -   -  2 4 mph 1019.8mb 59f 58f
10:00  -   -   -  4 7 mph 1019.8mb 59f 58f
9:50 4.5ft 11s 7s 4 7 mph 1019.8mb 59f 59f
9:40  -   -   -  2 4 mph 1019.8mb 59f 59f
9:30  -   -   -   -  2 mph 1019.8mb 59f 59f
9:20  -   -   -  2
mph
1019.8mb 59f 58f
9:10  -   -   -   -  2 mph 1019.8mb 59f 58f
9:00  -   -   -  2 4 mph 1019.9mb 59f 58f
8:50 5ft 11s 7s 2 4 mph 1019.9mb 59f 58f
8:40 5ft  -  7s 2 4 mph 1019.8mb 59f 58f
8:30  -   -   -  4 7 mph 1019.8mb 59f 58f
8:20  -   -   -  4 7 mph 1019.8mb 59f 58f
8:10  -   -   -  7 9 mph 1019.9mb 59f 58f
8:00  -   -   -  4 9 mph 1019.8mb 59f 58f
7:50 4.5ft 11s 6s 4 7 mph 1019.6mb 59f 58f
7:40 4.5ft  -  6s 7 9 mph 1019.5mb 59f 58f
7:30  -   -   -  7 9 mph 1019.5mb 59f 58f
7:20  -   -   -  9 13 mph 1019.5mb 59f 58f
7:10  -   -   -  11 13 mph 1019.5mb 59f 58f
7:00  -   -   -  11 16 mph 1019.5mb 59f 58f
6:50 4.5ft 15s 6s 13 18 mph 1019.5mb 59f 58f
6:40  -   -   -  13 16 mph 1019.5mb 59f 58f
6:30  -   -   -  13 16 mph 1019.4mb 59f 58f
6:20  -   -   -  13 16 mph 1019.1mb 59f 58f
6:10  -   -   -  11 16 mph 1019mb 59f 58f
6:00  -   -   -  13 16 mph 1019mb - 58f
5:50 4.5ft 14s 6s 13 18 mph 1019.1mb 59f 58f
5:40 4.5ft  -  6s 13 18 mph 1019.1mb 59f 58f
5:30  -   -   -  16 18 mph 1019.1mb 59f 58f
5:20  -   -   -  16 22 mph 1019.3mb 59f 58f
5:10  -   -   -  18 22 mph 1019.4mb 59f 58f
5:00  -   -   -  16 20 mph 1019.3mb 59f 58f
4:50 4ft 15s 6s 16 18 mph 1019.4mb 59f 58f
4:40 4ft  -  6s 13 18 mph 1019.5mb 59f 58f
4:30  -   -   -  16 18 mph 1019.5mb 59f 58f
4:20  -   -   -  13 18 mph 1019.5mb 59f 58f
4:10  -   -   -  11 16 mph 1019.5mb 59f 58f
4:00  -   -   -  13 16 mph 1019.5mb 59f 58f
3:50 3.5ft 15s 6s 13 16 mph 1019.8mb 59f 58f
3:40 3.5ft  -  6s 13 16 mph 1019.9mb 59f 58f
3:30  -   -   -  13 18 mph 1020.1mb 59f 58f
3:20  -   -   -  11 16 mph 1020.4mb 59f 58f
3:10  -   -   -  11 13 mph 1020.5mb 59f 58f
3:00  -   -   -  11 16 mph 1020.5mb 59f 58f
2:50 3.5ft 15s 6s 9 11 mph 1020.9mb 58f 58f
2:40 3.5ft  -  6s 9 13 mph 1020.9mb 58f 58f
2:30  -   -   -  11 13 mph 1020.8mb 58f 58f
2:20  -   -   -  11 13 mph 1020.8mb 58f 58f
2:10  -   -   -  11 13 mph 1020.9mb 58f 58f
2:00  -   -   -  11 13 mph 1021mb 59f 58f
1:50 4ft 13s 6s 11 13 mph 1021mb 59f 58f
1:40 4ft  -  6s 9 11 mph 1021mb 59f 58f
1:30  -   -   -  9 11 mph 1021mb 59f 58f
1:20  -   -   -  11 16 mph 1020.9mb 59f 58f
1:10  -   -   -  11 13 mph 1020.9mb 59f 58f
1:00  -   -   -  7 11 mph 1020.5mb 59f 58f
12:50 4ft 15s 6s 7 9 mph 1020.5mb 59f 58f
12:40 4ft  -  6s 9 11 mph 1021mb 59f 58f
12:30  -   -   -  11 13 mph 1021.5mb 59f 58f
12:20  -   -   -  9 11 mph 1021.5mb 59f 58f
12:10  -   -   -  11 13 mph 1021.6mb 59f 58f
12:00  -   -   -  11 13 mph 1021.8mb - 58f
ven. 03/24 11:50 4.5ft 15s 5s 11 16 mph 1021.9mb 59f 58f
11:40 4.5ft  -  5s 11 13 mph 1021.6mb 59f 58f
11:30  -   -   -  11 16 mph 1021.6mb 59f 58f
11:20  -   -   -  11 13 mph 1021.6mb 59f 58f
11:10  -   -   -  11 13 mph 1021.5mb 59f 58f
11:00  -   -   -  11 16 mph 1021.5mb 59f 58f
10:50 4.5ft 5s 5s 13 16 mph 1021.5mb 59f 58f
10:40 4.5ft  -  5s 13 18 mph 1021.5mb 59f 58f
10:30  -   -   -  13 16 mph 1021.5mb 59f 58f
10:20  -   -   -  13 18 mph 1021.6mb 59f 58f
10:10  -   -   -  16 18 mph 1021.5mb 59f 58f
10:00  -   -   -  18 22 mph 1021.5mb 59f 58f
9:50 5ft 15s 5s 18 20 mph 1021.8mb 59f 58f
9:40 5ft  -  5s 18 20 mph 1021.5mb 59f 58f
9:30  -   -   -  18 22 mph 1021.5mb 59f 58f
9:20  -   -   -  18 22 mph 1021.6mb 59f 58f
9:10  -   -   -  18 22 mph 1021.8mb 59f 58f
9:00  -   -   -  16 20 mph 1021.8mb 59f 58f
8:50 4.5ft 13s 5s 16 20 mph 1021.6mb 59f 58f
8:40 4.5ft  -  5s 18 22 mph 1021.6mb 59f 58f
8:30  -   -   -  18 22 mph 1021.5mb 59f 58f
8:20  -   -   -  18 22 mph 1021.4mb 59f 58f
8:10  -   -   -  18 22 mph 1021.4mb 59f 58f
8:00  -   -   -  18 22 mph 1021.1mb 59f 58f
7:50 3.5ft 15s 5s 18 25 mph 1021.1mb 59f 58f
7:40 3.5ft  -  5s 18 25 mph 1021mb 59f 58f
7:30  -   -   -  16 22 mph 1021mb 59f 58f
7:20  -   -   -  18 20 mph 1021.3mb 59f 58f
7:10  -   -   -  18 22 mph 1021.3mb 59f 58f
7:00  -   -   -  18 22 mph 1021.9mb 59f 58f
6:50 3.5ft 15s 5s 16 20 mph 1021.5mb 59f 58f
6:40  -   -   -  13 18 mph 1021.5mb 59f 58f
6:30  -   -   -  11 13 mph 1021.6mb 59f 58f
6:20  -   -   -  9 11 mph 1021.5mb 59f 58f
6:10  -   -   -  11 13 mph 1021.6mb 59f 58f
6:00  -   -   -  11 16 mph 1021.5mb 59f 58f
5:50 3.5ft 15s 5s 13 18 mph 1021.5mb 59f 58f
5:40  -   -   -  18 22 mph 1021.5mb 59f 58f
5:30  -   -   -  18 22 mph 1021.6mb 59f 59f
5:20  -   -   -  16 20 mph 1021.6mb 59f 58f
5:10  -   -   -  13 18 mph 1021.9mb 59f 58f
5:00  -   -   -  13 18 mph 1021.9mb 59f 58f
4:50 3.5ft 15s 6s 13 18 mph 1022mb 59f 58f
4:40  -   -   -  13 16 mph 1022mb 60f 58f
4:30  -   -   -  13 16 mph 1022mb 60f 58f
4:20  -   -   -  13 16 mph 1022.1mb 60f 58f
4:10  -   -   -  13 16 mph 1022.1mb 60f 58f
4:00  -   -   -  13 18 mph 1022.3mb 60f 58f
3:50 3.5ft 13s 6s 13 18 mph 1022.5mb 60f 58f
3:40 3.5ft  -  6s 16 18 mph 1022.6mb 60f 58f
3:30  -   -   -  16 18 mph 1022.6mb 60f 58f
3:20  -   -   -  13 18 mph 1022.8mb 60f 58f
3:10  -   -   -  16 18 mph 1023.1mb 60f 58f
3:00  -   -   -  16 18 mph 1023.4mb 60f 58f
2:50 3.5ft 15s 7s 13 18 mph 1023.5mb 60f 58f
2:40 3.5ft  -  7s 13 16 mph 1023.5mb 60f 59f
2:30  -   -   -  13 16 mph 1023.5mb 60f 59f
2:20  -   -   -  11 16 mph 1023.5mb 60f 59f
2:10  -   -   -  11 13 mph 1023.5mb 60f 59f
2:00  -   -   -  11 13 mph 1023.8mb - 59f
1:50 3.5ft 15s 7s 9 11 mph 1023.8mb 59f 59f
1:40 3.5ft  -  7s 7 9 mph 1023.9mb 59f 59f
1:30  -   -   -  7 9 mph 1024mb 59f 58f
1:20  -   -   -  4 7 mph 1024mb 59f 58f
1:10  -   -   -  4 7 mph 1024.2mb 59f 58f
1:00  -   -   -  2 4 mph 1024.3mb 59f 58f
12:50 3.5ft 15s 7s  -  2 mph 1024.3mb 59f 60f
12:40 3.5ft  -  7s  -  2 mph 1024.3mb 59f 59f
12:30  -   -   -   -  2 mph 1024.5mb 59f 59f
12:20  -   -   -   -  2 mph 1024.5mb 59f 59f
12:10  -   -   -   -  2 mph 1024.7mb 59f 59f
12:00  -   -   -  2 4 mph 1024.7mb 59f 58f
11:50 4ft 12s 7s 4 7 mph 1024.7mb 59f 58f
11:40 4ft  -  7s 4 7 mph 1024.5mb 59f 58f
11:30  -   -   -  4 7 mph 1024.5mb 59f 58f
11:20  -   -   -  4 7 mph 1024.7mb 59f 58f
11:10  -   -   -  4 7 mph 1024.8mb 59f 58f
11:00  -   -   -  7 9 mph 1024.5mb 59f 58f
10:50 4ft 15s 7s 7 9 mph 1024.5mb 59f 58f
10:40 4ft  -  7s 7 9 mph 1024.5mb 59f 58f
10:30  -   -   -  7 9 mph 1024.7mb 59f 58f
10:20  -   -   -  7 9 mph 1024.7mb 59f 58f
10:10  -   -   -  7 9 mph 1024.5mb 59f 58f
10:00  -   -   -  4 7 mph 1024.8mb 59f 58f
9:50 4.5ft 14s 7s 4 7 mph 1024.7mb 59f 58f
9:40 4.5ft  -  7s 7 9 mph 1024.7mb 59f 58f
9:30  -   -   -  7 9 mph 1024.5mb 59f 58f
9:20  -   -   -  7 9 mph 1024.5mb 59f 58f
9:10  -   -   -  7 9 mph 1024.5mb 59f 58f
9:00  -   -   -  9 11 mph 1024.3mb 58f 58f
8:50 5ft 16s 8s 9 11 mph 1024.2mb 58f 58f
8:40 5ft  -  8s 9 13 mph 1024mb 58f 58f
8:30  -   -   -  9 13 mph 1024mb 58f 58f
8:20  -   -   -  9 11 mph 1024mb 58f 58f
8:10  -   -   -  9 11 mph 1024mb 58f 58f
8:00  -   -   -  9 11 mph 1023.8mb 58f 58f
7:50 4.5ft 13s 7s 9 11 mph 1023.8mb 58f 58f
7:40 4.5ft  -  7s 9 11 mph 1023.8mb 58f 57f
7:30  -   -   -  9 13 mph 1023.6mb 58f 57f
7:20  -   -   -  9 11 mph 1023.5mb 58f 57f
7:10  -   -   -  9 11 mph 1023.5mb 58f 58f
7:00  -   -   -  9 11 mph 1023.5mb 58f 58f
6:50 5ft 14s 7s 9 11 mph 1023.4mb 58f 58f
6:40 5ft  -  7s 9 11 mph 1023.3mb 58f 57f
6:30  -   -   -  7 11 mph 1023.1mb 58f 57f
6:20  -   -   -  9 11 mph 1023.1mb 58f 57f